createdAt,value
2019-03-10T00:00:01.425Z,55
2019-03-10T00:00:58.939Z,56
2019-03-10T00:01:58.964Z,55
2019-03-10T00:02:58.952Z,56
2019-03-10T00:03:58.970Z,55
2019-03-10T00:04:58.979Z,55
2019-03-10T00:05:58.970Z,55
2019-03-10T00:06:58.996Z,55
2019-03-10T00:07:59.072Z,55
2019-03-10T00:08:59.009Z,55
2019-03-10T00:09:58.991Z,55
2019-03-10T00:10:58.975Z,55
2019-03-10T00:11:59.032Z,56
2019-03-10T00:12:59.024Z,55
2019-03-10T00:13:59.015Z,55
2019-03-10T00:14:59.053Z,55
2019-03-10T00:16:00.125Z,55
2019-03-10T00:16:59.054Z,55
2019-03-10T00:17:59.039Z,55
2019-03-10T00:18:59.033Z,55
2019-03-10T00:19:59.027Z,55
2019-03-10T00:20:59.039Z,55
2019-03-10T00:21:59.042Z,56
2019-03-10T00:22:59.137Z,56
2019-03-10T00:23:59.084Z,55
2019-03-10T00:24:59.048Z,55
2019-03-10T00:25:59.063Z,56
2019-03-10T00:26:59.080Z,56
2019-03-10T00:27:59.094Z,57
2019-03-10T00:28:59.060Z,56
2019-03-10T00:29:59.147Z,56
2019-03-10T00:30:59.080Z,57
2019-03-10T00:31:59.108Z,56
2019-03-10T00:32:59.122Z,56
2019-03-10T00:33:59.110Z,56
2019-03-10T00:34:59.126Z,56
2019-03-10T00:35:59.141Z,56
2019-03-10T00:36:59.107Z,56
2019-03-10T00:37:59.139Z,56
2019-03-10T00:38:59.199Z,56
2019-03-10T00:39:59.157Z,56
2019-03-10T00:40:59.155Z,57
2019-03-10T00:41:59.184Z,57
2019-03-10T00:42:59.157Z,56
2019-03-10T00:43:59.175Z,57
2019-03-10T00:44:59.184Z,56
2019-03-10T00:45:59.295Z,57
2019-03-10T00:46:59.190Z,57
2019-03-10T00:47:59.210Z,57
2019-03-10T00:48:59.236Z,57
2019-03-10T00:49:59.220Z,57
2019-03-10T00:50:59.194Z,57
2019-03-10T00:51:59.238Z,57
2019-03-10T00:52:59.274Z,57
2019-03-10T00:53:59.223Z,56
2019-03-10T00:54:59.250Z,57
2019-03-10T00:55:59.239Z,57
2019-03-10T00:56:59.210Z,58
2019-03-10T00:57:59.253Z,58
2019-03-10T00:58:59.327Z,57
2019-03-10T01:00:00.593Z,57
2019-03-10T01:00:59.248Z,58
2019-03-10T01:01:59.292Z,58
2019-03-10T01:02:59.275Z,58
2019-03-10T01:03:59.281Z,58
2019-03-10T01:04:59.278Z,58
2019-03-10T01:05:59.281Z,58
2019-03-10T01:07:01.459Z,58
2019-03-10T01:07:59.279Z,58
2019-03-10T01:08:59.306Z,58
2019-03-10T01:09:59.288Z,58
2019-03-10T01:10:59.796Z,58
2019-03-10T01:11:59.355Z,58
2019-03-10T01:12:59.317Z,58
2019-03-10T01:13:59.325Z,58
2019-03-10T01:14:59.310Z,58
2019-03-10T01:15:59.297Z,58
2019-03-10T01:16:59.351Z,58
2019-03-10T01:17:59.307Z,58
2019-03-10T01:18:59.319Z,58
2019-03-10T01:19:59.358Z,58
2019-03-10T01:20:59.323Z,58
2019-03-10T01:21:59.352Z,58
2019-03-10T01:22:59.353Z,58
2019-03-10T01:23:59.438Z,58
2019-03-10T01:24:59.356Z,58
2019-03-10T01:25:59.369Z,58
2019-03-10T01:26:59.375Z,58
2019-03-10T01:27:59.366Z,58
2019-03-10T01:28:59.357Z,58
2019-03-10T01:29:59.421Z,58
2019-03-10T01:30:59.366Z,59
2019-03-10T01:31:59.456Z,58
2019-03-10T01:32:59.395Z,58
2019-03-10T01:33:59.385Z,59
2019-03-10T01:34:59.409Z,59
2019-03-10T01:35:59.420Z,59
2019-03-10T01:36:59.399Z,59
2019-03-10T01:37:59.442Z,59
2019-03-10T01:38:59.457Z,59
2019-03-10T01:39:59.455Z,59
2019-03-10T01:40:59.429Z,60
2019-03-10T01:41:59.448Z,59
2019-03-10T01:42:59.443Z,59
2019-03-10T01:43:59.462Z,59
2019-03-10T01:44:59.449Z,59
2019-03-10T01:45:59.538Z,59
2019-03-10T01:46:59.480Z,59
2019-03-10T01:47:59.541Z,59
2019-03-10T01:48:59.474Z,59
2019-03-10T01:49:59.500Z,59
2019-03-10T01:50:59.477Z,59
2019-03-10T01:51:59.483Z,59
2019-03-10T01:52:59.490Z,59
2019-03-10T01:53:59.481Z,59
2019-03-10T01:54:59.563Z,58
2019-03-10T01:55:59.528Z,59
2019-03-10T01:56:59.505Z,59
2019-03-10T01:57:59.530Z,59
2019-03-10T01:58:59.532Z,59
2019-03-10T02:00:59.553Z,58
2019-03-10T02:01:04.348Z,59
2019-03-10T02:01:59.552Z,58
2019-03-10T02:02:59.539Z,59
2019-03-10T02:03:59.555Z,59
2019-03-10T02:04:59.536Z,59
2019-03-10T02:05:59.518Z,58
2019-03-10T02:06:59.536Z,59
2019-03-10T02:07:59.570Z,58
2019-03-10T02:08:59.574Z,58
2019-03-10T02:09:59.586Z,58
2019-03-10T02:10:59.619Z,58
2019-03-10T02:11:59.897Z,58
2019-03-10T02:12:59.574Z,59
2019-03-10T02:13:59.564Z,58
2019-03-10T02:14:59.661Z,59
2019-03-10T02:15:59.613Z,58
2019-03-10T02:16:59.626Z,58
2019-03-10T02:17:59.612Z,59
2019-03-10T02:18:59.622Z,59
2019-03-10T02:19:59.637Z,59
2019-03-10T02:20:59.654Z,59
2019-03-10T02:21:59.620Z,59
2019-03-10T02:22:59.620Z,59
2019-03-10T02:23:59.636Z,59
2019-03-10T02:24:59.694Z,59
2019-03-10T02:25:59.686Z,58
2019-03-10T02:26:59.686Z,59
2019-03-10T02:27:59.662Z,58
2019-03-10T02:28:59.688Z,58
2019-03-10T02:29:59.701Z,59
2019-03-10T02:30:59.702Z,59
2019-03-10T02:31:59.718Z,58
2019-03-10T02:32:59.735Z,58
2019-03-10T02:33:59.724Z,59
2019-03-10T02:34:59.751Z,59
2019-03-10T02:35:59.868Z,59
2019-03-10T02:36:59.784Z,58
2019-03-10T02:37:59.741Z,58
2019-03-10T02:38:59.743Z,58
2019-03-10T02:39:59.774Z,58
2019-03-10T02:40:59.753Z,59
2019-03-10T02:41:59.774Z,59
2019-03-10T02:42:59.792Z,58
2019-03-10T02:43:59.781Z,58
2019-03-10T02:45:00.584Z,59
2019-03-10T02:45:59.775Z,58
2019-03-10T02:46:59.932Z,59
2019-03-10T02:47:59.895Z,59
2019-03-10T02:48:59.810Z,59
2019-03-10T02:49:59.848Z,59
2019-03-10T02:50:59.832Z,59
2019-03-10T02:51:59.821Z,59
2019-03-10T02:52:59.820Z,59
2019-03-10T02:53:59.846Z,58
2019-03-10T02:54:59.870Z,59
2019-03-10T02:55:59.825Z,59
2019-03-10T02:56:59.860Z,59
2019-03-10T02:57:59.839Z,58
2019-03-10T02:58:59.857Z,59
2019-03-10T02:59:59.850Z,59
2019-03-10T03:00:59.845Z,58
2019-03-10T03:01:59.878Z,59
2019-03-10T03:02:59.862Z,59
2019-03-10T03:03:59.883Z,59
2019-03-10T03:04:59.892Z,59
2019-03-10T03:05:59.905Z,59
2019-03-10T03:06:59.870Z,59
2019-03-10T03:07:59.880Z,58
2019-03-10T03:08:59.883Z,58
2019-03-10T03:09:59.923Z,59
2019-03-10T03:10:59.903Z,59
2019-03-10T03:11:59.929Z,59
2019-03-10T03:12:59.983Z,59
2019-03-10T03:13:59.953Z,59
2019-03-10T03:14:59.975Z,59
2019-03-10T03:16:02.446Z,59
2019-03-10T03:16:59.964Z,59
2019-03-10T03:17:59.971Z,59
2019-03-10T03:18:59.968Z,59
2019-03-10T03:20:00.682Z,59
2019-03-10T03:21:00.027Z,59
2019-03-10T03:22:00.011Z,60
2019-03-10T03:23:00.116Z,60
2019-03-10T03:24:00.044Z,60
2019-03-10T03:25:00.043Z,60
2019-03-10T03:26:00.073Z,60
2019-03-10T03:27:02.428Z,60
2019-03-10T03:28:00.089Z,60
2019-03-10T03:29:00.146Z,60
2019-03-10T03:30:00.132Z,60
2019-03-10T03:31:00.161Z,60
2019-03-10T03:32:00.233Z,60
2019-03-10T03:33:00.184Z,60
2019-03-10T03:34:00.189Z,60
2019-03-10T03:35:00.649Z,60
2019-03-10T03:36:00.215Z,60
2019-03-10T03:37:00.219Z,60
2019-03-10T03:38:00.248Z,61
2019-03-10T03:39:00.285Z,60
2019-03-10T03:40:00.430Z,60
2019-03-10T03:41:00.274Z,60
2019-03-10T03:42:00.331Z,60
2019-03-10T03:43:00.306Z,60
2019-03-10T03:44:02.617Z,60
2019-03-10T03:45:00.346Z,60
2019-03-10T03:46:00.339Z,60
2019-03-10T03:47:00.378Z,60
2019-03-10T03:48:00.372Z,60
2019-03-10T03:49:00.384Z,60
2019-03-10T03:50:00.590Z,60
2019-03-10T03:51:00.419Z,60
2019-03-10T03:52:00.444Z,60
2019-03-10T03:53:00.507Z,60
2019-03-10T03:54:00.458Z,60
2019-03-10T03:55:00.491Z,60
2019-03-10T03:56:00.551Z,60
2019-03-10T03:57:00.474Z,60
2019-03-10T03:58:00.521Z,60
2019-03-10T03:59:00.547Z,61
2019-03-10T04:00:00.683Z,60
2019-03-10T04:01:00.531Z,60
2019-03-10T04:02:00.604Z,61
2019-03-10T04:03:00.571Z,61
2019-03-10T04:04:00.579Z,61
2019-03-10T04:05:00.631Z,61
2019-03-10T04:06:00.630Z,61
2019-03-10T04:07:00.597Z,60
2019-03-10T04:08:00.671Z,60
2019-03-10T04:09:00.635Z,61
2019-03-10T04:10:00.794Z,60
2019-03-10T04:11:00.683Z,60
2019-03-10T04:12:00.686Z,61
2019-03-10T04:13:00.711Z,61
2019-03-10T04:14:00.696Z,61
2019-03-10T04:15:00.790Z,62
2019-03-10T04:16:00.728Z,61
2019-03-10T04:17:00.749Z,61
2019-03-10T04:18:00.737Z,61
2019-03-10T04:19:00.748Z,61
2019-03-10T04:20:00.846Z,61
2019-03-10T04:21:00.815Z,61
2019-03-10T04:22:00.790Z,61
2019-03-10T04:23:00.844Z,61
2019-03-10T04:24:00.833Z,61
2019-03-10T04:25:00.852Z,61
2019-03-10T04:26:00.850Z,60
2019-03-10T04:27:00.849Z,61
2019-03-10T04:28:00.887Z,60
2019-03-10T04:29:00.894Z,60
2019-03-10T04:30:00.881Z,60
2019-03-10T04:31:00.903Z,61
2019-03-10T04:32:00.951Z,61
2019-03-10T04:33:00.928Z,61
2019-03-10T04:34:00.925Z,60
2019-03-10T04:35:00.953Z,61
2019-03-10T04:36:01.009Z,61
2019-03-10T04:37:00.950Z,60
2019-03-10T04:38:00.984Z,60
2019-03-10T04:39:00.996Z,60
2019-03-10T04:40:01.048Z,61
2019-03-10T04:41:01.019Z,60
2019-03-10T04:42:01.041Z,60
2019-03-10T04:43:01.054Z,60
2019-03-10T04:44:01.046Z,59
2019-03-10T04:45:01.127Z,60
2019-03-10T04:46:01.078Z,60
2019-03-10T04:47:01.095Z,60
2019-03-10T04:48:01.106Z,59
2019-03-10T04:49:01.142Z,59
2019-03-10T04:50:01.199Z,60
2019-03-10T04:51:01.118Z,60
2019-03-10T04:52:01.180Z,59
2019-03-10T04:53:01.173Z,59
2019-03-10T04:54:01.168Z,59
2019-03-10T04:55:01.182Z,59
2019-03-10T04:56:01.214Z,59
2019-03-10T04:57:03.429Z,59
2019-03-10T04:58:01.222Z,59
2019-03-10T04:59:01.220Z,59
2019-03-10T05:00:01.275Z,59
2019-03-10T05:01:01.231Z,59
2019-03-10T05:02:01.247Z,59
2019-03-10T05:03:01.288Z,59
2019-03-10T05:04:01.250Z,59
2019-03-10T05:05:01.262Z,59
2019-03-10T05:06:01.300Z,59
2019-03-10T05:07:01.274Z,59
2019-03-10T05:08:01.313Z,59
2019-03-10T05:09:01.328Z,58
2019-03-10T05:10:01.389Z,59
2019-03-10T05:11:01.433Z,59
2019-03-10T05:12:01.350Z,58
2019-03-10T05:13:01.369Z,58
2019-03-10T05:14:01.393Z,58
2019-03-10T05:15:04.001Z,58
2019-03-10T05:16:01.380Z,58
2019-03-10T05:17:01.375Z,58
2019-03-10T05:18:01.422Z,58
2019-03-10T05:19:01.437Z,58
2019-03-10T05:20:03.638Z,57
2019-03-10T05:21:01.444Z,57
2019-03-10T05:22:01.440Z,57
2019-03-10T05:23:01.476Z,58
2019-03-10T05:24:01.463Z,58
2019-03-10T05:25:01.527Z,58
2019-03-10T05:26:01.481Z,57
2019-03-10T05:27:01.473Z,57
2019-03-10T05:28:01.480Z,57
2019-03-10T05:29:01.505Z,57
2019-03-10T05:30:01.501Z,58
2019-03-10T05:31:01.629Z,57
2019-03-10T05:32:01.507Z,57
2019-03-10T05:33:01.538Z,58
2019-03-10T05:34:01.522Z,58
2019-03-10T05:35:01.554Z,58
2019-03-10T05:36:01.551Z,58
2019-03-10T05:37:01.561Z,58
2019-03-10T05:38:01.651Z,58
2019-03-10T05:39:01.627Z,58
2019-03-10T05:40:01.577Z,58
2019-03-10T05:41:01.597Z,58
2019-03-10T05:42:01.598Z,58
2019-03-10T05:43:01.590Z,58
2019-03-10T05:44:01.629Z,58
2019-03-10T05:45:01.627Z,58
2019-03-10T05:46:01.631Z,58
2019-03-10T05:47:01.635Z,58
2019-03-10T05:48:01.716Z,58
2019-03-10T05:49:01.729Z,58
2019-03-10T05:50:01.658Z,58
2019-03-10T05:51:01.675Z,58
2019-03-10T05:52:01.682Z,58
2019-03-10T05:53:01.682Z,58
2019-03-10T05:54:01.707Z,57
2019-03-10T05:55:01.699Z,57
2019-03-10T05:56:02.223Z,58
2019-03-10T05:57:01.737Z,58
2019-03-10T05:58:01.740Z,58
2019-03-10T05:59:01.744Z,57
2019-03-10T06:00:01.760Z,58
2019-03-10T06:01:01.748Z,57
2019-03-10T06:02:01.784Z,58
2019-03-10T06:03:01.755Z,57
2019-03-10T06:04:01.810Z,58
2019-03-10T06:05:01.763Z,58
2019-03-10T06:06:01.825Z,58
2019-03-10T06:07:01.790Z,57
2019-03-10T06:08:01.795Z,58
2019-03-10T06:09:01.799Z,58
2019-03-10T06:10:01.802Z,58
2019-03-10T06:11:01.812Z,58
2019-03-10T06:12:01.798Z,58
2019-03-10T06:13:01.807Z,58
2019-03-10T06:14:01.813Z,58
2019-03-10T06:15:01.902Z,58
2019-03-10T06:16:01.939Z,58
2019-03-10T06:17:01.825Z,58
2019-03-10T06:18:12.633Z,58
2019-03-10T06:19:01.836Z,58
2019-03-10T06:20:01.864Z,58
2019-03-10T06:21:01.861Z,58
2019-03-10T06:22:01.877Z,59
2019-03-10T06:23:01.904Z,58
2019-03-10T06:24:01.915Z,58
2019-03-10T06:25:01.954Z,58
2019-03-10T06:26:01.869Z,58
2019-03-10T06:27:01.899Z,58
2019-03-10T06:28:01.900Z,58
2019-03-10T06:29:01.905Z,59
2019-03-10T06:30:01.929Z,59
2019-03-10T06:31:01.952Z,59
2019-03-10T06:32:01.938Z,58
2019-03-10T06:33:01.929Z,59
2019-03-10T06:34:01.992Z,58
2019-03-10T06:35:01.940Z,58
2019-03-10T06:36:01.940Z,59
2019-03-10T06:37:02.000Z,58
2019-03-10T06:38:01.957Z,58
2019-03-10T06:39:01.986Z,58
2019-03-10T06:40:02.006Z,59
2019-03-10T06:41:01.970Z,59
2019-03-10T06:42:02.040Z,59
2019-03-10T06:43:01.959Z,59
2019-03-10T06:44:01.965Z,59
2019-03-10T06:45:01.959Z,59
2019-03-10T06:46:01.989Z,59
2019-03-10T06:47:01.995Z,60
2019-03-10T06:48:01.994Z,60
2019-03-10T06:49:01.978Z,60
2019-03-10T06:50:02.024Z,60
2019-03-10T06:51:01.991Z,60
2019-03-10T06:52:02.014Z,61
2019-03-10T06:53:02.014Z,61
2019-03-10T06:54:01.996Z,61
2019-03-10T06:55:02.064Z,61
2019-03-10T06:56:02.046Z,61
2019-03-10T06:57:02.034Z,61
2019-03-10T06:58:02.029Z,62
2019-03-10T06:59:02.011Z,62
2019-03-10T07:00:02.095Z,62
2019-03-10T07:01:02.045Z,62
2019-03-10T07:02:02.039Z,63
2019-03-10T07:03:02.060Z,63
2019-03-10T07:04:02.087Z,63
2019-03-10T07:05:02.077Z,64
2019-03-10T07:06:02.065Z,64
2019-03-10T07:07:02.063Z,64
2019-03-10T07:08:02.058Z,64
2019-03-10T07:09:02.051Z,65
2019-03-10T07:10:02.088Z,65
2019-03-10T07:11:02.112Z,65
2019-03-10T07:12:02.091Z,65
2019-03-10T07:13:02.112Z,65
2019-03-10T07:14:02.110Z,65
2019-03-10T07:15:02.174Z,65
2019-03-10T07:16:02.061Z,65
2019-03-10T07:17:02.094Z,65
2019-03-10T07:18:02.103Z,65
2019-03-10T07:19:02.106Z,65
2019-03-10T07:20:02.200Z,66
2019-03-10T07:21:02.096Z,66
2019-03-10T07:22:02.099Z,65
2019-03-10T07:23:02.101Z,65
2019-03-10T07:24:02.099Z,65
2019-03-10T07:25:02.106Z,65
2019-03-10T07:26:04.252Z,65
2019-03-10T07:27:02.402Z,66
2019-03-10T07:28:02.143Z,66
2019-03-10T07:29:02.189Z,65
2019-03-10T07:30:02.128Z,65
2019-03-10T07:31:02.133Z,65
2019-03-10T07:32:04.667Z,65
2019-03-10T07:33:02.132Z,65
2019-03-10T07:34:02.145Z,65
2019-03-10T07:35:02.160Z,65
2019-03-10T07:36:02.157Z,65
2019-03-10T07:37:02.149Z,65
2019-03-10T07:38:02.161Z,66
2019-03-10T07:39:02.167Z,66
2019-03-10T07:40:02.155Z,65
2019-03-10T07:41:02.162Z,65
2019-03-10T07:42:02.160Z,65
2019-03-10T07:43:02.159Z,65
2019-03-10T07:44:02.202Z,66
2019-03-10T07:45:02.193Z,65
2019-03-10T07:46:02.180Z,66
2019-03-10T07:47:02.158Z,65
2019-03-10T07:48:02.199Z,65
2019-03-10T07:49:02.214Z,65
2019-03-10T07:50:02.185Z,64
2019-03-10T07:51:02.198Z,65
2019-03-10T07:52:02.248Z,64
2019-03-10T07:53:02.207Z,65
2019-03-10T07:54:02.243Z,65
2019-03-10T07:55:02.227Z,65
2019-03-10T07:56:02.222Z,65
2019-03-10T07:57:02.207Z,65
2019-03-10T07:58:02.211Z,66
2019-03-10T07:59:02.225Z,66
2019-03-10T08:00:02.324Z,66
2019-03-10T08:01:02.215Z,66
2019-03-10T08:02:02.199Z,66
2019-03-10T08:03:02.189Z,66
2019-03-10T08:04:02.242Z,66
2019-03-10T08:05:02.230Z,66
2019-03-10T08:06:02.216Z,67
2019-03-10T08:07:02.266Z,67
2019-03-10T08:08:02.275Z,68
2019-03-10T08:09:02.249Z,68
2019-03-10T08:10:02.246Z,69
2019-03-10T08:11:02.259Z,70
2019-03-10T08:12:02.229Z,70
2019-03-10T08:13:02.235Z,71
2019-03-10T08:14:02.258Z,72
2019-03-10T08:15:02.338Z,72
2019-03-10T08:16:02.234Z,72
2019-03-10T08:17:02.292Z,71
2019-03-10T08:18:02.277Z,72
2019-03-10T08:19:02.270Z,72
2019-03-10T08:20:02.453Z,71
2019-03-10T08:21:02.298Z,71
2019-03-10T08:22:02.260Z,70
2019-03-10T08:23:02.323Z,71
2019-03-10T08:24:02.298Z,71
2019-03-10T08:25:02.411Z,72
2019-03-10T08:26:02.310Z,73
2019-03-10T08:27:02.307Z,73
2019-03-10T08:28:02.312Z,73
2019-03-10T08:29:02.309Z,75
2019-03-10T08:30:02.350Z,75
2019-03-10T08:31:02.361Z,74
2019-03-10T08:32:02.364Z,73
2019-03-10T08:33:02.357Z,74
2019-03-10T08:34:02.374Z,74
2019-03-10T08:35:02.357Z,75
2019-03-10T08:36:02.377Z,74
2019-03-10T08:37:02.402Z,74
2019-03-10T08:38:02.395Z,73
2019-03-10T08:39:02.415Z,75
2019-03-10T08:40:02.408Z,75
2019-03-10T08:41:02.507Z,75
2019-03-10T08:42:02.473Z,75
2019-03-10T08:43:02.432Z,75
2019-03-10T08:44:02.449Z,75
2019-03-10T08:45:02.432Z,76
2019-03-10T08:46:02.494Z,75
2019-03-10T08:47:02.430Z,75
2019-03-10T08:48:02.481Z,75
2019-03-10T08:49:02.448Z,75
2019-03-10T08:50:02.441Z,74
2019-03-10T08:51:02.586Z,75
2019-03-10T08:52:02.495Z,74
2019-03-10T08:53:02.501Z,74
2019-03-10T08:54:02.465Z,75
2019-03-10T08:55:02.465Z,76
2019-03-10T08:56:02.484Z,76
2019-03-10T08:57:02.498Z,76
2019-03-10T08:58:02.510Z,77
2019-03-10T08:59:02.476Z,77
2019-03-10T09:00:02.494Z,77
2019-03-10T09:01:02.512Z,78
2019-03-10T09:02:02.520Z,77
2019-03-10T09:03:02.491Z,77
2019-03-10T09:04:02.529Z,77
2019-03-10T09:05:02.597Z,77
2019-03-10T09:06:02.536Z,78
2019-03-10T09:07:02.510Z,78
2019-03-10T09:08:02.513Z,78
2019-03-10T09:09:03.081Z,77
2019-03-10T09:10:02.589Z,77
2019-03-10T09:11:02.558Z,76
2019-03-10T09:12:02.584Z,76
2019-03-10T09:13:02.551Z,75
2019-03-10T09:14:05.093Z,76
2019-03-10T09:15:02.634Z,77
2019-03-10T09:16:02.570Z,78
2019-03-10T09:17:02.605Z,78
2019-03-10T09:18:02.615Z,77
2019-03-10T09:19:02.579Z,77
2019-03-10T09:20:02.590Z,76
2019-03-10T09:21:02.686Z,77
2019-03-10T09:22:02.665Z,78
2019-03-10T09:23:02.625Z,78
2019-03-10T09:24:02.623Z,77
2019-03-10T09:25:02.622Z,77
2019-03-10T09:26:02.644Z,77
2019-03-10T09:27:02.639Z,77
2019-03-10T09:28:02.949Z,76
2019-03-10T09:29:02.651Z,77
2019-03-10T09:30:02.681Z,78
2019-03-10T09:31:02.670Z,79
2019-03-10T09:32:02.701Z,79
2019-03-10T09:33:02.685Z,78
2019-03-10T09:34:02.709Z,78
2019-03-10T09:35:02.709Z,79
2019-03-10T09:36:02.723Z,80
2019-03-10T09:37:02.715Z,79
2019-03-10T09:38:03.675Z,80
2019-03-10T09:39:02.720Z,79
2019-03-10T09:40:02.741Z,77
2019-03-10T09:41:02.738Z,76
2019-03-10T09:42:02.766Z,77
2019-03-10T09:43:02.770Z,78
2019-03-10T09:44:03.789Z,78
2019-03-10T09:45:02.822Z,79
2019-03-10T09:46:02.740Z,79
2019-03-10T09:47:02.791Z,79
2019-03-10T09:48:02.767Z,78
2019-03-10T09:49:02.788Z,78
2019-03-10T09:50:02.809Z,78
2019-03-10T09:51:02.769Z,79
2019-03-10T09:52:02.898Z,80
2019-03-10T09:53:02.918Z,80
2019-03-10T09:54:02.884Z,80
2019-03-10T09:55:02.793Z,79
2019-03-10T09:56:02.833Z,80
2019-03-10T09:57:02.877Z,80
2019-03-10T09:58:02.807Z,80
2019-03-10T09:59:03.032Z,79
2019-03-10T10:00:02.822Z,80
2019-03-10T10:01:02.812Z,81
2019-03-10T10:02:02.854Z,81
2019-03-10T10:03:02.830Z,81
2019-03-10T10:04:02.872Z,81
2019-03-10T10:05:02.844Z,80
2019-03-10T10:06:02.837Z,80
2019-03-10T10:07:02.869Z,80
2019-03-10T10:08:02.942Z,81
2019-03-10T10:09:02.892Z,81
2019-03-10T10:10:02.901Z,79
2019-03-10T10:11:02.906Z,78
2019-03-10T10:12:12.852Z,78
2019-03-10T10:13:02.941Z,79
2019-03-10T10:14:02.912Z,80
2019-03-10T10:15:02.951Z,81
2019-03-10T10:16:02.938Z,81
2019-03-10T10:17:03.026Z,81
2019-03-10T10:18:02.940Z,82
2019-03-10T10:19:02.981Z,81
2019-03-10T10:20:02.986Z,80
2019-03-10T10:21:03.008Z,80
2019-03-10T10:22:03.004Z,80
2019-03-10T10:23:02.988Z,80
2019-03-10T10:24:02.963Z,82
2019-03-10T10:25:03.017Z,82
2019-03-10T10:26:03.000Z,79
2019-03-10T10:27:02.975Z,79
2019-03-10T10:28:02.987Z,80
2019-03-10T10:29:03.055Z,78
2019-03-10T10:30:03.028Z,78
2019-03-10T10:31:03.027Z,78
2019-03-10T10:32:03.042Z,78
2019-03-10T10:33:03.052Z,79
2019-03-10T10:34:03.057Z,80
2019-03-10T10:35:03.050Z,79
2019-03-10T10:36:03.062Z,77
2019-03-10T10:37:03.108Z,77
2019-03-10T10:38:03.063Z,77
2019-03-10T10:39:03.089Z,79
2019-03-10T10:40:03.122Z,80
2019-03-10T10:41:03.051Z,80
2019-03-10T10:42:03.078Z,79
2019-03-10T10:43:03.086Z,79
2019-03-10T10:44:03.091Z,78
2019-03-10T10:45:03.121Z,78
2019-03-10T10:46:03.104Z,79
2019-03-10T10:47:03.136Z,79
2019-03-10T10:48:03.130Z,78
2019-03-10T10:49:03.142Z,79
2019-03-10T10:50:03.173Z,80
2019-03-10T10:51:03.131Z,80
2019-03-10T10:52:03.131Z,81
2019-03-10T10:53:03.148Z,80
2019-03-10T10:54:03.154Z,79
2019-03-10T10:55:03.166Z,79
2019-03-10T10:56:03.160Z,80
2019-03-10T10:57:03.257Z,80
2019-03-10T10:58:05.348Z,81
2019-03-10T10:59:03.206Z,81
2019-03-10T11:00:03.195Z,81
2019-03-10T11:01:03.183Z,80
2019-03-10T11:02:03.195Z,79
2019-03-10T11:03:03.198Z,78
2019-03-10T11:04:03.194Z,78
2019-03-10T11:05:03.211Z,79
2019-03-10T11:06:03.228Z,80
2019-03-10T11:07:03.218Z,80
2019-03-10T11:08:03.246Z,80
2019-03-10T11:09:03.252Z,81
2019-03-10T11:10:03.352Z,81
2019-03-10T11:11:03.221Z,81
2019-03-10T11:12:03.268Z,82
2019-03-10T11:13:03.236Z,81
2019-03-10T11:14:03.250Z,80
2019-03-10T11:15:03.291Z,80
2019-03-10T11:16:03.272Z,80
2019-03-10T11:17:03.304Z,81
2019-03-10T11:18:09.148Z,79
2019-03-10T11:19:03.332Z,79
2019-03-10T11:20:03.274Z,79
2019-03-10T11:21:03.295Z,81
2019-03-10T11:22:03.274Z,80
2019-03-10T11:23:03.298Z,80
2019-03-10T11:24:03.331Z,79
2019-03-10T11:25:03.294Z,77
2019-03-10T11:26:03.323Z,78
2019-03-10T11:27:03.323Z,78
2019-03-10T11:28:03.498Z,79
2019-03-10T11:29:03.977Z,80
2019-03-10T11:30:03.312Z,81
2019-03-10T11:31:03.315Z,81
2019-03-10T11:32:03.309Z,81
2019-03-10T11:33:03.337Z,82
2019-03-10T11:34:03.353Z,82
2019-03-10T11:35:03.354Z,80
2019-03-10T11:36:03.367Z,80
2019-03-10T11:37:03.367Z,81
2019-03-10T11:38:03.338Z,82
2019-03-10T11:39:03.371Z,82
2019-03-10T11:40:03.387Z,83
2019-03-10T11:41:03.379Z,83
2019-03-10T11:42:03.400Z,83
2019-03-10T11:43:03.365Z,82
2019-03-10T11:44:03.402Z,83
2019-03-10T11:45:03.412Z,82
2019-03-10T11:46:03.434Z,82
2019-03-10T11:47:03.420Z,81
2019-03-10T11:48:03.393Z,80
2019-03-10T11:49:03.436Z,80
2019-03-10T11:50:03.462Z,81
2019-03-10T11:51:03.438Z,83
2019-03-10T11:52:03.531Z,82
2019-03-10T11:53:03.458Z,81
2019-03-10T11:54:03.508Z,81
2019-03-10T11:55:03.521Z,82
2019-03-10T11:56:03.536Z,82
2019-03-10T11:57:03.507Z,82
2019-03-10T11:58:03.535Z,81
2019-03-10T11:59:03.508Z,81
2019-03-10T12:00:03.535Z,80
2019-03-10T12:01:03.544Z,80
2019-03-10T12:02:03.528Z,78
2019-03-10T12:03:03.567Z,78
2019-03-10T12:04:03.535Z,78
2019-03-10T12:05:03.599Z,78
2019-03-10T12:06:03.573Z,78
2019-03-10T12:07:03.643Z,78
2019-03-10T12:08:03.577Z,79
2019-03-10T12:09:03.610Z,78
2019-03-10T12:10:04.621Z,78
2019-03-10T12:11:03.610Z,79
2019-03-10T12:12:03.639Z,79
2019-03-10T12:13:03.629Z,79
2019-03-10T12:14:03.647Z,80
2019-03-10T12:15:03.648Z,80
2019-03-10T12:16:03.656Z,80
2019-03-10T12:17:03.662Z,80
2019-03-10T12:18:03.658Z,80
2019-03-10T12:19:03.671Z,80
2019-03-10T12:20:03.660Z,81
2019-03-10T12:21:03.723Z,81
2019-03-10T12:22:03.685Z,82
2019-03-10T12:23:03.719Z,83
2019-03-10T12:24:03.683Z,83
2019-03-10T12:25:03.691Z,82
2019-03-10T12:26:03.728Z,82
2019-03-10T12:27:03.734Z,81
2019-03-10T12:28:03.755Z,81
2019-03-10T12:29:03.763Z,78
2019-03-10T12:30:03.749Z,78
2019-03-10T12:31:03.739Z,79
2019-03-10T12:32:03.765Z,79
2019-03-10T12:33:03.740Z,79
2019-03-10T12:34:05.357Z,79
2019-03-10T12:35:03.794Z,80
2019-03-10T12:36:03.774Z,81
2019-03-10T12:37:03.782Z,82
2019-03-10T12:38:03.757Z,82
2019-03-10T12:39:03.805Z,83
2019-03-10T12:40:03.846Z,84
2019-03-10T12:41:03.802Z,84
2019-03-10T12:42:03.785Z,84
2019-03-10T12:43:03.790Z,83
2019-03-10T12:44:03.807Z,84
2019-03-10T12:45:03.789Z,84
2019-03-10T12:46:03.794Z,84
2019-03-10T12:47:03.848Z,85
2019-03-10T12:48:03.922Z,84
2019-03-10T12:49:03.875Z,83
2019-03-10T12:50:03.810Z,82
2019-03-10T12:51:03.940Z,82
2019-03-10T12:52:03.861Z,83
2019-03-10T12:53:03.891Z,84
2019-03-10T12:54:03.896Z,84
2019-03-10T12:55:03.850Z,85
2019-03-10T12:56:03.885Z,86
2019-03-10T12:57:03.966Z,86
2019-03-10T12:58:03.887Z,86
2019-03-10T12:59:03.878Z,86
2019-03-10T13:00:04.061Z,85
2019-03-10T13:01:06.386Z,85
2019-03-10T13:02:03.874Z,84
2019-03-10T13:03:03.886Z,84
2019-03-10T13:04:03.895Z,84
2019-03-10T13:05:03.893Z,85
2019-03-10T13:06:03.897Z,85
2019-03-10T13:07:03.887Z,84
2019-03-10T13:08:03.939Z,84
2019-03-10T13:09:03.907Z,84
2019-03-10T13:10:03.911Z,85
2019-03-10T13:11:03.897Z,85
2019-03-10T13:12:03.979Z,85
2019-03-10T13:13:03.942Z,85
2019-03-10T13:14:04.008Z,85
2019-03-10T13:15:04.367Z,84
2019-03-10T13:16:04.028Z,83
2019-03-10T13:17:03.991Z,83
2019-03-10T13:18:04.018Z,83
2019-03-10T13:19:04.988Z,84
2019-03-10T13:20:04.089Z,84
2019-03-10T13:21:04.081Z,84
2019-03-10T13:22:04.045Z,85
2019-03-10T13:23:04.097Z,85
2019-03-10T13:24:04.096Z,86
2019-03-10T13:25:04.369Z,87
2019-03-10T13:26:04.107Z,87
2019-03-10T13:27:04.117Z,88
2019-03-10T13:28:04.139Z,87
2019-03-10T13:29:04.169Z,87
2019-03-10T13:30:04.197Z,88
2019-03-10T13:31:04.167Z,89
2019-03-10T13:32:04.359Z,90
2019-03-10T13:33:04.246Z,91
2019-03-10T13:34:04.222Z,92
2019-03-10T13:35:04.253Z,93
2019-03-10T13:36:04.226Z,94
2019-03-10T13:37:04.462Z,94
2019-03-10T13:38:04.346Z,93
2019-03-10T13:39:04.290Z,92
2019-03-10T13:40:04.294Z,92
2019-03-10T13:41:04.317Z,92
2019-03-10T13:42:04.372Z,92
2019-03-10T13:43:04.450Z,92
2019-03-10T13:44:04.370Z,92
2019-03-10T13:45:04.373Z,93
2019-03-10T13:46:04.500Z,93
2019-03-10T13:47:04.402Z,94
2019-03-10T13:48:04.503Z,94
2019-03-10T13:49:04.428Z,95
2019-03-10T13:50:04.465Z,95
2019-03-10T13:51:04.467Z,95
2019-03-10T13:52:04.571Z,95
2019-03-10T13:53:04.487Z,95
2019-03-10T13:54:04.481Z,95
2019-03-10T13:55:04.491Z,94
2019-03-10T13:56:04.506Z,93
2019-03-10T13:57:04.562Z,92
2019-03-10T13:58:04.585Z,92
2019-03-10T13:59:04.574Z,92
2019-03-10T14:00:04.605Z,92
2019-03-10T14:01:04.624Z,92
2019-03-10T14:02:04.594Z,91
2019-03-10T14:03:04.616Z,90
2019-03-10T14:04:04.632Z,89
2019-03-10T14:05:04.652Z,89
2019-03-10T14:06:04.667Z,88
2019-03-10T14:07:05.694Z,88
2019-03-10T14:08:04.681Z,87
2019-03-10T14:09:04.707Z,86
2019-03-10T14:10:04.717Z,86
2019-03-10T14:11:04.704Z,85
2019-03-10T14:12:04.749Z,86
2019-03-10T14:13:04.759Z,87
2019-03-10T14:14:04.759Z,87
2019-03-10T14:15:04.782Z,86